createdAt,value
2017-11-03T00:01:15.325Z,9.20
2017-11-03T00:03:43.584Z,7.87
2017-11-03T00:06:11.964Z,7.30
2017-11-03T00:08:40.209Z,7.57
2017-11-03T00:11:08.528Z,9.20
2017-11-03T00:13:36.784Z,8.73
2017-11-03T00:16:05.278Z,8.47
2017-11-03T00:18:33.539Z,7.77
2017-11-03T00:21:02.037Z,8.37
2017-11-03T00:23:31.089Z,8.10
2017-11-03T00:25:59.421Z,7.67
2017-11-03T00:28:27.787Z,7.60
2017-11-03T00:30:56.373Z,7.00
2017-11-03T00:33:24.875Z,7.80
2017-11-03T00:35:53.242Z,6.23
2017-11-03T00:38:21.528Z,7.97
2017-11-03T00:40:49.805Z,6.80
2017-11-03T00:43:18.052Z,7.10
2017-11-03T00:45:46.342Z,8.70
2017-11-03T00:48:14.614Z,7.80
2017-11-03T00:50:42.907Z,8.07
2017-11-03T00:53:11.281Z,6.17
2017-11-03T00:55:39.563Z,7.17
2017-11-03T00:58:07.820Z,7.20
2017-11-03T01:00:36.113Z,6.83
2017-11-03T01:03:04.364Z,7.67
2017-11-03T01:05:32.661Z,7.90
2017-11-03T01:08:00.912Z,6.83
2017-11-03T01:10:29.184Z,8.00
2017-11-03T01:12:57.437Z,6.80
2017-11-03T01:15:26.611Z,7.03
2017-11-03T01:17:54.966Z,6.13
2017-11-03T01:20:23.340Z,5.47
2017-11-03T01:22:51.617Z,6.70
2017-11-03T01:25:19.888Z,6.47
2017-11-03T01:27:48.146Z,5.00
2017-11-03T01:30:16.430Z,6.10
2017-11-03T01:32:44.680Z,6.00
2017-11-03T01:35:12.965Z,5.87
2017-11-03T01:37:41.286Z,6.43
2017-11-03T01:40:09.575Z,6.03
2017-11-03T01:42:37.859Z,5.07
2017-11-03T01:45:06.215Z,5.70
2017-11-03T01:47:34.489Z,6.70
2017-11-03T01:50:02.775Z,6.63
2017-11-03T01:52:31.020Z,6.60
2017-11-03T01:54:59.297Z,6.00
2017-11-03T01:57:27.578Z,6.87
2017-11-03T01:59:55.832Z,5.83
2017-11-03T02:02:24.159Z,5.53
2017-11-03T02:04:52.405Z,5.30
2017-11-03T02:07:20.672Z,4.40
2017-11-03T02:09:48.920Z,5.37
2017-11-03T02:12:17.982Z,6.07
2017-11-03T02:14:46.229Z,6.93
2017-11-03T02:17:14.505Z,6.10
2017-11-03T02:19:42.765Z,6.87
2017-11-03T02:22:11.032Z,7.43
2017-11-03T02:24:40.084Z,7.43
2017-11-03T02:27:08.348Z,8.30
2017-11-03T02:29:36.617Z,8.10
2017-11-03T02:32:04.910Z,8.97
2017-11-03T02:34:33.159Z,7.90
2017-11-03T02:37:01.443Z,6.83
2017-11-03T02:39:29.751Z,9.40
2017-11-03T02:41:58.026Z,8.40
2017-11-03T02:44:26.275Z,6.97
2017-11-03T02:46:54.545Z,6.80
2017-11-03T02:49:22.805Z,6.50
2017-11-03T02:51:51.087Z,7.23
2017-11-03T02:54:19.353Z,6.17
2017-11-03T02:56:48.398Z,5.30
2017-11-03T02:59:16.658Z,6.20
2017-11-03T03:01:44.975Z,5.40
2017-11-03T03:04:13.335Z,5.70
2017-11-03T03:06:41.616Z,5.33
2017-11-03T03:09:09.860Z,6.00
2017-11-03T03:11:38.138Z,5.03
2017-11-03T03:14:06.388Z,3.90
2017-11-03T03:16:35.431Z,5.40
2017-11-03T03:19:03.735Z,4.27
2017-11-03T03:21:32.003Z,4.20
2017-11-03T03:24:00.259Z,5.30
2017-11-03T03:26:28.532Z,4.77
2017-11-03T03:28:56.797Z,4.73
2017-11-03T03:31:25.074Z,6.00
2017-11-03T03:33:53.402Z,4.80
2017-11-03T03:36:21.663Z,5.40
2017-11-03T03:38:49.924Z,5.43
2017-11-03T03:41:18.187Z,5.50
2017-11-03T03:43:46.431Z,5.63
2017-11-03T03:46:15.464Z,5.93
2017-11-03T03:48:43.716Z,6.30
2017-11-03T03:51:11.986Z,6.37
2017-11-03T03:53:40.241Z,7.03
2017-11-03T03:56:09.275Z,6.60
2017-11-03T03:58:37.542Z,7.10
2017-11-03T04:01:05.826Z,6.90
2017-11-03T04:03:34.179Z,7.00
2017-11-03T04:06:03.336Z,7.17
2017-11-03T04:08:31.586Z,6.27
2017-11-03T04:10:59.881Z,6.27
2017-11-03T04:13:28.159Z,6.70
2017-11-03T04:15:56.454Z,6.43
2017-11-03T04:18:24.728Z,6.80
2017-11-03T04:20:53.092Z,6.43
2017-11-03T04:23:21.471Z,5.53
2017-11-03T04:25:49.758Z,7.27
2017-11-03T04:28:18.126Z,7.03
2017-11-03T04:30:46.381Z,7.10
2017-11-03T04:33:14.663Z,6.83
2017-11-03T04:35:42.957Z,6.00
2017-11-03T04:38:11.235Z,6.47
2017-11-03T04:40:39.513Z,7.40
2017-11-03T04:43:07.790Z,7.20
2017-11-03T04:45:36.074Z,7.90
2017-11-03T04:48:04.466Z,7.30
2017-11-03T04:50:32.734Z,7.83
2017-11-03T04:53:01.010Z,7.53
2017-11-03T04:55:29.264Z,7.77
2017-11-03T04:57:57.553Z,9.40
2017-11-03T05:00:25.805Z,6.23
2017-11-03T05:02:54.076Z,7.10
2017-11-03T05:05:22.349Z,7.40
2017-11-03T05:07:50.672Z,7.00
2017-11-03T05:10:18.957Z,6.87
2017-11-03T05:12:47.327Z,7.60
2017-11-03T05:15:15.598Z,7.47
2017-11-03T05:17:43.982Z,8.30
2017-11-03T05:20:12.568Z,7.00
2017-11-03T05:22:40.852Z,10.03
2017-11-03T05:25:09.935Z,10.80
2017-11-03T05:27:38.188Z,10.03
2017-11-03T05:30:06.480Z,9.60
2017-11-03T05:32:34.742Z,8.70
2017-11-03T05:35:03.034Z,7.90
2017-11-03T05:37:31.295Z,8.80
2017-11-03T05:39:59.566Z,9.80
2017-11-03T05:42:27.830Z,8.20
2017-11-03T05:44:56.101Z,8.30
2017-11-03T05:47:25.116Z,7.87
2017-11-03T05:49:53.413Z,7.10
2017-11-03T05:52:21.694Z,7.03
2017-11-03T05:54:49.978Z,8.13
2017-11-03T05:57:18.483Z,8.40
2017-11-03T05:59:46.834Z,7.17
2017-11-03T06:02:15.139Z,8.13
2017-11-03T06:04:43.431Z,5.50
2017-11-03T06:07:12.448Z,5.87
2017-11-03T06:09:40.761Z,5.93
2017-11-03T06:12:09.029Z,5.27
2017-11-03T06:14:37.318Z,5.07
2017-11-03T06:17:06.286Z,4.80
2017-11-03T06:19:34.557Z,5.60
2017-11-03T06:22:02.813Z,5.00
2017-11-03T06:24:31.132Z,4.63
2017-11-03T06:26:59.408Z,6.00
2017-11-03T06:29:27.692Z,6.20
2017-11-03T06:31:57.619Z,6.57
2017-11-03T06:34:25.995Z,7.00
2017-11-03T06:36:54.289Z,8.13
2017-11-03T06:39:22.660Z,7.07
2017-11-03T06:41:50.930Z,7.00
2017-11-03T06:44:19.310Z,5.90
2017-11-03T06:46:47.579Z,6.63
2017-11-03T06:49:15.974Z,6.60
2017-11-03T06:51:45.766Z,8.20
2017-11-03T06:54:14.151Z,6.73
2017-11-03T06:56:42.441Z,5.93
2017-11-03T06:59:10.726Z,8.00
2017-11-03T07:01:38.988Z,8.00
2017-11-03T07:04:07.278Z,7.80
2017-11-03T07:06:35.531Z,9.27
2017-11-03T07:09:03.819Z,8.07
2017-11-03T07:11:32.096Z,7.03
2017-11-03T07:14:00.479Z,10.10
2017-11-03T07:16:28.844Z,8.23
2017-11-03T07:18:57.219Z,8.13
2017-11-03T07:21:25.522Z,9.30
2017-11-03T07:23:53.994Z,8.70
2017-11-03T07:26:22.384Z,9.00
2017-11-03T07:28:50.750Z,9.37
2017-11-03T07:31:19.234Z,8.33
2017-11-03T07:33:47.484Z,7.87
2017-11-03T07:36:15.769Z,10.10
2017-11-03T07:38:44.021Z,8.37
2017-11-03T07:41:12.319Z,8.03
2017-11-03T07:43:40.592Z,9.60
2017-11-03T07:46:08.864Z,8.73
2017-11-03T07:48:37.141Z,8.00
2017-11-03T07:51:05.428Z,7.80
2017-11-03T07:53:33.720Z,8.10
2017-11-03T07:56:02.002Z,7.30
2017-11-03T07:58:30.264Z,9.20
2017-11-03T08:00:58.549Z,9.03
2017-11-03T08:03:26.869Z,8.90
2017-11-03T08:05:55.920Z,8.70
2017-11-03T08:08:24.196Z,8.10
2017-11-03T08:10:52.579Z,8.60
2017-11-03T08:13:20.859Z,10.87
2017-11-03T08:15:49.173Z,8.40
2017-11-03T08:18:18.275Z,7.77
2017-11-03T08:20:47.331Z,6.57
2017-11-03T08:23:15.599Z,6.53
2017-11-03T08:25:43.977Z,6.93
2017-11-03T08:28:12.256Z,6.50
2017-11-03T08:30:40.643Z,6.70
2017-11-03T08:33:08.923Z,6.23
2017-11-03T08:35:37.189Z,6.30
2017-11-03T08:38:05.475Z,7.30
2017-11-03T08:40:33.744Z,6.57
2017-11-03T08:43:02.020Z,5.07
2017-11-03T08:45:30.296Z,6.67
2017-11-03T08:47:58.590Z,6.10
2017-11-03T08:50:26.859Z,6.10
2017-11-03T08:52:55.123Z,5.97
2017-11-03T08:55:23.409Z,6.67
2017-11-03T08:57:52.264Z,6.10
2017-11-03T09:00:20.580Z,5.73
2017-11-03T09:02:48.837Z,5.00
2017-11-03T09:05:17.110Z,5.77
2017-11-03T09:07:45.379Z,5.03
2017-11-03T09:10:13.670Z,4.17
2017-11-03T09:12:41.922Z,5.23
2017-11-03T09:15:10.196Z,5.10
2017-11-03T09:17:38.452Z,4.90
2017-11-03T09:20:07.619Z,4.67
2017-11-03T09:22:35.893Z,4.57
2017-11-03T09:25:04.174Z,3.90
2017-11-03T09:27:32.458Z,4.50
2017-11-03T09:30:00.737Z,4.60
2017-11-03T09:32:29.015Z,5.33
2017-11-03T09:34:57.486Z,6.27
2017-11-03T09:37:25.772Z,4.77
2017-11-03T09:39:54.037Z,4.23
2017-11-03T09:42:22.312Z,4.27
2017-11-03T09:44:50.585Z,5.03
2017-11-03T09:47:18.959Z,3.80
2017-11-03T09:49:47.228Z,5.20
2017-11-03T09:52:15.496Z,5.07
2017-11-03T09:54:43.775Z,4.40
2017-11-03T09:57:12.180Z,4.97
2017-11-03T09:59:40.439Z,4.47
2017-11-03T10:02:08.724Z,4.27
2017-11-03T10:04:37.006Z,3.50
2017-11-03T10:07:05.399Z,5.03
2017-11-03T10:09:33.656Z,5.17
2017-11-03T10:12:02.042Z,4.97
2017-11-03T10:14:30.304Z,4.60
2017-11-03T10:16:58.602Z,4.37
2017-11-03T10:19:26.847Z,4.03
2017-11-03T10:21:55.166Z,4.80
2017-11-03T10:24:23.432Z,4.47
2017-11-03T10:26:51.818Z,3.73
2017-11-03T10:29:20.089Z,4.03
2017-11-03T10:31:48.349Z,3.07
2017-11-03T10:34:16.748Z,3.40
2017-11-03T10:36:45.019Z,4.00
2017-11-03T10:39:13.295Z,3.43
2017-11-03T10:41:41.587Z,3.57
2017-11-03T10:44:09.852Z,3.50
2017-11-03T10:46:38.233Z,3.93
2017-11-03T10:49:06.480Z,2.93
2017-11-03T10:51:34.770Z,3.70
2017-11-03T10:54:03.034Z,3.33
2017-11-03T10:56:31.317Z,3.20
2017-11-03T10:58:59.590Z,3.00
2017-11-03T11:01:27.849Z,3.80
2017-11-03T11:03:56.166Z,3.43
2017-11-03T11:06:24.461Z,3.10
2017-11-03T11:08:52.733Z,3.40
2017-11-03T11:11:21.002Z,3.77
2017-11-03T11:13:49.300Z,3.00
2017-11-03T11:16:17.568Z,3.10
2017-11-03T11:18:45.850Z,3.50
2017-11-03T11:21:14.121Z,3.00
2017-11-03T11:23:42.397Z,2.90
2017-11-03T11:26:10.692Z,3.93
2017-11-03T11:28:38.951Z,3.73
2017-11-03T11:31:07.208Z,3.00
2017-11-03T11:33:35.589Z,3.33
2017-11-03T11:36:03.871Z,2.70
2017-11-03T11:38:32.158Z,3.10
2017-11-03T11:41:00.434Z,3.33
2017-11-03T11:43:28.911Z,2.57
2017-11-03T11:45:57.184Z,2.20
2017-11-03T11:48:25.465Z,2.73
2017-11-03T11:50:53.736Z,2.87
2017-11-03T11:53:22.009Z,3.30
2017-11-03T11:55:50.275Z,2.90
2017-11-03T11:58:18.570Z,2.60
2017-11-03T12:00:46.843Z,3.70
2017-11-03T12:03:15.117Z,3.10
2017-11-03T12:05:43.406Z,3.53
2017-11-03T12:08:11.668Z,2.97
2017-11-03T12:10:39.925Z,2.97
2017-11-03T12:13:08.209Z,3.07
2017-11-03T12:15:36.502Z,3.47
2017-11-03T12:18:04.788Z,3.20
2017-11-03T12:20:33.067Z,3.07
2017-11-03T12:23:01.445Z,3.10
2017-11-03T12:25:29.712Z,2.63
2017-11-03T12:27:57.987Z,2.93
2017-11-03T12:30:26.277Z,3.40
2017-11-03T12:32:54.551Z,2.40
2017-11-03T12:35:22.828Z,3.00
2017-11-03T12:37:51.140Z,2.83
2017-11-03T12:40:20.179Z,2.63
2017-11-03T12:42:48.440Z,2.10
2017-11-03T12:45:16.716Z,3.23
2017-11-03T12:47:45.022Z,2.87
2017-11-03T12:50:13.316Z,2.43
2017-11-03T12:52:41.568Z,2.60
2017-11-03T12:55:09.852Z,2.60
2017-11-03T12:57:38.125Z,2.20
2017-11-03T13:00:06.725Z,2.27
2017-11-03T13:02:35.096Z,2.33
2017-11-03T13:05:03.485Z,2.90
2017-11-03T13:07:31.744Z,1.80
2017-11-03T13:10:00.021Z,1.43
2017-11-03T13:12:28.280Z,1.67
2017-11-03T13:14:56.562Z,1.43
2017-11-03T13:17:24.815Z,2.00
2017-11-03T13:19:53.852Z,1.87
2017-11-03T13:22:22.123Z,1.80
2017-11-03T13:24:50.410Z,2.20
2017-11-03T13:27:18.682Z,1.73
2017-11-03T13:29:46.972Z,1.40
2017-11-03T13:32:15.232Z,2.70
2017-11-03T13:34:43.621Z,1.80
2017-11-03T13:37:11.872Z,1.60
2017-11-03T13:39:40.181Z,2.17
2017-11-03T13:42:08.457Z,1.73
2017-11-03T13:44:36.825Z,1.60
2017-11-03T13:47:05.105Z,1.77
2017-11-03T13:49:33.381Z,2.00
2017-11-03T13:52:01.671Z,2.80
2017-11-03T13:54:29.936Z,2.00
2017-11-03T13:56:58.207Z,2.10
2017-11-03T13:59:26.478Z,2.10
2017-11-03T14:01:54.742Z,2.33
2017-11-03T14:04:23.015Z,3.33
2017-11-03T14:06:51.274Z,2.93
2017-11-03T14:09:20.316Z,3.13
2017-11-03T14:11:48.573Z,3.00
2017-11-03T14:14:16.850Z,2.23
2017-11-03T14:16:45.105Z,3.50
2017-11-03T14:19:13.381Z,3.10
2017-11-03T14:21:41.658Z,2.80
2017-11-03T14:24:10.796Z,2.93
2017-11-03T14:26:39.076Z,2.70
2017-11-03T14:29:07.492Z,2.93
2017-11-03T14:31:35.843Z,2.70
2017-11-03T14:34:04.084Z,2.70
2017-11-03T14:36:32.362Z,3.10
2017-11-03T14:39:00.616Z,3.30
2017-11-03T14:41:28.935Z,3.50
2017-11-03T14:43:57.192Z,2.90
2017-11-03T14:46:25.478Z,2.80
2017-11-03T14:48:53.733Z,3.00
2017-11-03T14:51:22.020Z,3.00
2017-11-03T14:53:50.284Z,2.57
2017-11-03T14:56:18.567Z,2.57
2017-11-03T14:58:46.838Z,1.93
2017-11-03T15:01:15.111Z,2.87
2017-11-03T15:03:43.378Z,2.23
2017-11-03T15:06:12.425Z,2.10
2017-11-03T15:08:40.732Z,2.33
2017-11-03T15:11:09.001Z,2.47
2017-11-03T15:13:37.269Z,2.73
2017-11-03T15:16:05.551Z,2.07
2017-11-03T15:18:33.822Z,2.37
2017-11-03T15:21:02.105Z,3.17
2017-11-03T15:23:30.381Z,2.80
2017-11-03T15:25:58.653Z,2.60
2017-11-03T15:28:26.924Z,2.83
2017-11-03T15:30:55.223Z,2.80
2017-11-03T15:33:23.492Z,3.30
2017-11-03T15:35:51.864Z,3.20
2017-11-03T15:38:20.134Z,3.37
2017-11-03T15:40:48.537Z,3.00
2017-11-03T15:43:16.794Z,3.97
2017-11-03T15:45:45.176Z,2.80
2017-11-03T15:48:13.555Z,2.70
2017-11-03T15:50:41.821Z,3.07
2017-11-03T15:53:10.096Z,3.27
2017-11-03T15:55:38.384Z,3.37
2017-11-03T15:58:06.656Z,3.60
2017-11-03T16:00:35.041Z,3.40
2017-11-03T16:03:03.296Z,3.63
2017-11-03T16:05:31.576Z,3.77
2017-11-03T16:07:59.839Z,3.57
2017-11-03T16:10:28.116Z,4.00
2017-11-03T16:12:56.376Z,3.83
2017-11-03T16:15:24.702Z,4.03
2017-11-03T16:17:52.959Z,4.10
2017-11-03T16:20:21.249Z,3.30
2017-11-03T16:22:49.509Z,4.07
2017-11-03T16:25:17.779Z,4.40
2017-11-03T16:27:46.080Z,4.63
2017-11-03T16:30:14.486Z,3.97
2017-11-03T16:32:42.762Z,5.40
2017-11-03T16:35:11.063Z,5.20
2017-11-03T16:37:40.108Z,6.57
2017-11-03T16:40:08.368Z,6.87
2017-11-03T16:42:36.764Z,5.70
2017-11-03T16:45:05.035Z,4.93
2017-11-03T16:47:33.312Z,5.50
2017-11-03T16:50:01.577Z,4.70
2017-11-03T16:52:29.886Z,6.20
2017-11-03T16:54:58.144Z,6.77
2017-11-03T16:57:26.544Z,7.10
2017-11-03T16:59:54.913Z,7.90
2017-11-03T17:02:23.206Z,6.97
2017-11-03T17:04:51.465Z,7.60
2017-11-03T17:07:19.740Z,7.47
2017-11-03T17:09:48.021Z,8.13
2017-11-03T17:12:16.302Z,9.27
2017-11-03T17:14:44.571Z,7.70
2017-11-03T17:17:12.850Z,7.57
2017-11-03T17:19:41.134Z,8.70
2017-11-03T17:22:09.528Z,8.47
2017-11-03T17:24:37.789Z,9.27
2017-11-03T17:27:06.095Z,8.80
2017-11-03T17:29:35.129Z,9.63
2017-11-03T17:32:03.410Z,10.43
2017-11-03T17:34:31.709Z,10.37
2017-11-03T17:36:59.989Z,9.97
2017-11-03T17:39:28.250Z,9.80
2017-11-03T17:41:56.525Z,9.50
2017-11-03T17:44:24.827Z,8.80
2017-11-03T17:46:53.108Z,8.73
2017-11-03T17:49:22.137Z,7.73
2017-11-03T17:51:51.160Z,9.47
2017-11-03T17:54:19.479Z,7.60
2017-11-03T17:56:47.734Z,7.73
2017-11-03T17:59:16.024Z,9.67
2017-11-03T18:01:44.304Z,9.17
2017-11-03T18:04:12.589Z,9.33
2017-11-03T18:06:40.967Z,9.23
2017-11-03T18:09:09.240Z,9.70
2017-11-03T18:11:37.500Z,9.83
2017-11-03T18:14:05.787Z,9.60
2017-11-03T18:16:34.039Z,10.67
2017-11-03T18:19:02.323Z,10.03
2017-11-03T18:21:30.681Z,10.90
2017-11-03T18:23:58.946Z,11.37
2017-11-03T18:26:27.285Z,12.43
2017-11-03T18:28:55.649Z,13.50
2017-11-03T18:31:23.926Z,11.67
2017-11-03T18:33:52.200Z,12.13
2017-11-03T18:36:20.479Z,11.17
2017-11-03T18:38:48.865Z,13.83
2017-11-03T18:41:17.109Z,13.67
2017-11-03T18:43:45.412Z,12.37
2017-11-03T18:46:13.676Z,12.20
2017-11-03T18:48:41.968Z,12.30
2017-11-03T18:51:10.228Z,12.13
2017-11-03T18:53:38.515Z,13.80
2017-11-03T18:56:06.763Z,12.23
2017-11-03T18:58:35.044Z,12.57
2017-11-03T19:01:03.325Z,10.60
2017-11-03T19:03:32.460Z,11.37
2017-11-03T19:06:00.717Z,11.53
2017-11-03T19:08:29.004Z,11.10
2017-11-03T19:10:57.373Z,10.20
2017-11-03T19:13:25.755Z,11.70
2017-11-03T19:15:54.016Z,13.57
2017-11-03T19:18:22.445Z,12.43
2017-11-03T19:20:50.706Z,12.53
2017-11-03T19:23:18.986Z,12.90
2017-11-03T19:25:47.278Z,14.30
2017-11-03T19:28:15.585Z,13.70
2017-11-03T19:30:43.840Z,12.60
2017-11-03T19:33:12.894Z,14.93
2017-11-03T19:35:41.265Z,12.97
2017-11-03T19:38:09.525Z,14.60
2017-11-03T19:40:37.826Z,14.03
2017-11-03T19:43:06.092Z,14.30
2017-11-03T19:45:34.390Z,15.93
2017-11-03T19:48:03.412Z,14.43
2017-11-03T19:50:32.461Z,14.27
2017-11-03T19:53:00.854Z,13.60
2017-11-03T19:55:29.163Z,14.17
2017-11-03T19:57:58.329Z,14.10
2017-11-03T20:00:26.754Z,13.73
2017-11-03T20:02:55.833Z,13.83
2017-11-03T20:05:24.224Z,17.10
2017-11-03T20:07:53.264Z,16.27
2017-11-03T20:10:21.550Z,14.93
2017-11-03T20:12:49.809Z,16.40
2017-11-03T20:15:18.097Z,16.03
2017-11-03T20:17:46.375Z,14.57
2017-11-03T20:20:14.780Z,14.70
2017-11-03T20:22:43.183Z,14.50
2017-11-03T20:25:12.220Z,14.73
2017-11-03T20:27:40.561Z,15.77
2017-11-03T20:30:09.595Z,15.93
2017-11-03T20:32:37.857Z,15.40
2017-11-03T20:35:06.375Z,13.83
2017-11-03T20:37:35.421Z,15.60
2017-11-03T20:40:03.688Z,16.30
2017-11-03T20:42:32.737Z,15.70
2017-11-03T20:45:00.998Z,14.60
2017-11-03T20:47:29.287Z,14.53
2017-11-03T20:49:57.553Z,16.13
2017-11-03T20:52:25.862Z,15.10
2017-11-03T20:54:54.899Z,15.33
2017-11-03T20:57:23.180Z,14.73
2017-11-03T20:59:51.449Z,15.63
2017-11-03T21:02:19.741Z,14.53
2017-11-03T21:04:48.005Z,12.73
2017-11-03T21:07:16.318Z,14.97
2017-11-03T21:09:44.586Z,14.57
2017-11-03T21:12:12.860Z,14.10
2017-11-03T21:14:41.124Z,14.90
2017-11-03T21:17:09.407Z,13.20
2017-11-03T21:19:37.660Z,15.93
2017-11-03T21:22:05.980Z,16.73
2017-11-03T21:24:34.274Z,15.83
2017-11-03T21:27:02.649Z,15.00
2017-11-03T21:29:31.003Z,16.10
2017-11-03T21:31:59.292Z,14.93
2017-11-03T21:34:27.552Z,16.30
2017-11-03T21:36:55.856Z,14.70
2017-11-03T21:39:24.112Z,15.30
2017-11-03T21:41:52.436Z,13.90
2017-11-03T21:44:20.712Z,15.43
2017-11-03T21:46:48.977Z,15.20
2017-11-03T21:49:18.004Z,16.83
2017-11-03T21:51:46.304Z,14.80
2017-11-03T21:54:14.566Z,15.30
2017-11-03T21:56:42.850Z,25.70
2017-11-03T21:59:11.143Z,15.80
2017-11-03T22:01:39.410Z,15.67
2017-11-03T22:04:07.674Z,14.43
2017-11-03T22:06:35.953Z,13.13
2017-11-03T22:09:04.224Z,14.47
2017-11-03T22:11:32.638Z,12.70
2017-11-03T22:14:00.883Z,13.67
2017-11-03T22:16:29.346Z,14.47
2017-11-03T22:18:58.381Z,15.20
2017-11-03T22:21:26.683Z,12.90
2017-11-03T22:23:54.940Z,13.53
2017-11-03T22:26:23.447Z,13.17
2017-11-03T22:28:51.718Z,13.37
2017-11-03T22:31:20.032Z,14.13
2017-11-03T22:33:49.080Z,13.00
2017-11-03T22:36:17.348Z,13.53
2017-11-03T22:38:45.629Z,13.77
2017-11-03T22:41:13.905Z,12.93
2017-11-03T22:43:42.179Z,13.63
2017-11-03T22:46:10.443Z,13.97
2017-11-03T22:48:38.728Z,12.67
2017-11-03T22:51:06.984Z,13.83
2017-11-03T22:53:35.278Z,14.57
2017-11-03T22:56:03.590Z,13.00
2017-11-03T22:58:31.868Z,13.33
2017-11-03T23:01:00.133Z,15.57
2017-11-03T23:03:28.418Z,20.13
2017-11-03T23:05:56.694Z,16.10
2017-11-03T23:08:25.026Z,14.40
2017-11-03T23:10:53.312Z,15.33
2017-11-03T23:13:21.625Z,14.17
2017-11-03T23:15:49.997Z,14.23
2017-11-03T23:18:18.278Z,14.40
2017-11-03T23:20:46.563Z,14.40
2017-11-03T23:23:14.828Z,14.10
2017-11-03T23:25:43.108Z,14.17
2017-11-03T23:28:11.512Z,15.63
2017-11-03T23:30:39.773Z,15.83
2017-11-03T23:33:08.157Z,14.57
2017-11-03T23:35:36.525Z,15.07
2017-11-03T23:38:04.922Z,14.07
2017-11-03T23:40:33.176Z,15.57
2017-11-03T23:43:01.467Z,14.13
2017-11-03T23:45:29.715Z,13.80
2017-11-03T23:47:57.996Z,14.43
2017-11-03T23:50:26.262Z,13.60
2017-11-03T23:52:54.539Z,14.03
2017-11-03T23:55:22.792Z,13.20
2017-11-03T23:57:51.953Z,14.47
